createdAt,value
2022-08-26T00:00:01.762Z,95093.09
2022-08-26T00:02:34.898Z,95086.31
2022-08-26T00:05:21.753Z,95083.72
2022-08-26T00:08:03.752Z,95085.63
2022-08-26T00:10:50.738Z,95084.84
2022-08-26T00:13:23.843Z,95087.41
2022-08-26T00:16:11.804Z,95081.34
2022-08-26T00:18:52.766Z,95080.50
2022-08-26T00:21:48.697Z,95085.06
2022-08-26T00:24:36.775Z,95080.91
2022-08-26T00:27:10.883Z,95080.97
2022-08-26T00:29:57.736Z,95086.25
2022-08-26T00:32:37.768Z,95087.28
2022-08-26T00:35:27.963Z,95083.03
2022-08-26T00:38:02.941Z,95079.63
2022-08-26T00:40:57.769Z,95090.03
2022-08-26T00:43:32.880Z,95091.00
2022-08-26T00:46:36.760Z,95089.38
2022-08-26T00:49:25.770Z,95080.88
2022-08-26T00:52:25.775Z,95089.75
2022-08-26T00:55:22.751Z,95089.09
2022-08-26T00:57:57.901Z,95090.13
2022-08-26T01:00:45.214Z,95084.25
2022-08-26T01:03:19.878Z,95084.25
2022-08-26T01:06:11.482Z,95089.41
2022-08-26T01:08:46.930Z,95092.97
2022-08-26T01:11:33.792Z,95086.16
2022-08-26T01:14:15.769Z,95093.22
2022-08-26T01:17:09.789Z,95089.06
2022-08-26T01:20:04.838Z,95087.53
2022-08-26T01:23:03.588Z,95086.78
2022-08-26T01:26:02.796Z,95085.25
2022-08-26T01:28:56.777Z,95091.56
2022-08-26T01:31:48.809Z,95089.88
2022-08-26T01:34:32.876Z,95090.72
2022-08-26T01:37:24.798Z,95091.78
2022-08-26T01:39:59.934Z,95089.44
2022-08-26T01:42:48.796Z,95086.22
2022-08-26T01:45:42.854Z,95084.59
2022-08-26T01:48:41.780Z,95081.88
2022-08-26T01:51:31.798Z,95086.19
2022-08-26T01:54:05.973Z,95084.44
2022-08-26T01:56:53.795Z,95082.69
2022-08-26T01:59:27.872Z,95093.13
2022-08-26T02:02:14.800Z,95081.91
2022-08-26T02:04:54.906Z,95078.38
2022-08-26T02:07:41.789Z,95085.28
2022-08-26T02:10:22.806Z,95086.97
2022-08-26T02:13:10.808Z,95089.63
2022-08-26T02:15:53.873Z,95082.16
2022-08-26T02:18:50.831Z,95088.47
2022-08-26T02:21:39.839Z,95094.75
2022-08-26T02:24:20.889Z,95090.41
2022-08-26T02:27:07.814Z,95083.41
2022-08-26T02:29:46.932Z,95085.94
2022-08-26T02:32:36.811Z,95080.09
2022-08-26T02:35:21.852Z,95092.28
2022-08-26T02:38:15.827Z,95091.56
2022-08-26T02:41:09.832Z,95086.69
2022-08-26T02:44:04.184Z,95091.94
2022-08-26T02:46:50.838Z,95092.72
2022-08-26T02:49:36.850Z,95095.31
2022-08-26T02:52:30.828Z,95087.66
2022-08-26T02:55:25.853Z,95086.91
2022-08-26T02:58:19.824Z,95085.41
2022-08-26T03:01:07.875Z,95088.97
2022-08-26T03:03:47.867Z,95085.72
2022-08-26T03:06:35.856Z,95084.97
2022-08-26T03:09:18.482Z,95084.13
2022-08-26T03:12:05.857Z,95080.81
2022-08-26T03:14:40.941Z,95090.22
2022-08-26T03:17:27.852Z,95091.06
2022-08-26T03:20:07.906Z,95081.56
2022-08-26T03:23:03.994Z,95088.28
2022-08-26T03:26:02.890Z,95082.34
2022-08-26T03:29:14.881Z,95073.88
2022-08-26T03:32:01.863Z,95076.47
2022-08-26T03:34:35.099Z,95069.78
2022-08-26T03:37:21.897Z,95066.56
2022-08-26T03:39:56.034Z,95066.56
2022-08-26T03:42:47.905Z,95068.28
2022-08-26T03:45:23.013Z,95074.44
2022-08-26T03:48:09.908Z,95071.00
2022-08-26T03:50:42.947Z,95070.97
2022-08-26T03:53:30.882Z,95071.72
2022-08-26T03:56:03.998Z,95070.75
2022-08-26T03:58:51.011Z,95069.84
2022-08-26T04:01:24.615Z,95068.16
2022-08-26T04:04:15.642Z,95066.44
2022-08-26T04:06:56.883Z,95069.03
2022-08-26T04:09:52.885Z,95065.63
2022-08-26T04:12:39.916Z,95069.13
2022-08-26T04:15:19.029Z,95066.72
2022-08-26T04:18:05.916Z,95067.66
2022-08-26T04:20:39.264Z,95066.00
2022-08-26T04:23:25.916Z,95073.09
2022-08-26T04:25:58.962Z,95068.88
2022-08-26T04:28:45.913Z,95066.31
2022-08-26T04:31:21.013Z,95073.22
2022-08-26T04:34:07.911Z,95070.66
2022-08-26T04:36:45.003Z,95066.41
2022-08-26T04:39:32.939Z,95069.66
2022-08-26T04:42:09.295Z,95071.22
2022-08-26T04:44:56.923Z,95065.09
2022-08-26T04:47:32.493Z,95065.81
2022-08-26T04:50:18.883Z,95065.81
2022-08-26T04:52:55.470Z,95067.44
2022-08-26T04:55:45.068Z,95062.28
2022-08-26T04:58:22.030Z,95072.50
2022-08-26T05:01:08.942Z,95068.88
2022-08-26T05:03:42.048Z,95070.34
2022-08-26T05:06:28.932Z,95072.44
2022-08-26T05:09:10.007Z,95077.16
2022-08-26T05:11:56.957Z,95079.28
2022-08-26T05:14:36.935Z,95075.47
2022-08-26T05:17:24.937Z,95079.34
2022-08-26T05:20:04.931Z,95078.03
2022-08-26T05:22:52.934Z,95087.09
2022-08-26T05:25:31.021Z,95084.03
2022-08-26T05:28:19.952Z,95080.16
2022-08-26T05:30:53.059Z,95066.81
2022-08-26T05:33:41.354Z,95078.38
2022-08-26T05:36:26.934Z,95076.25
2022-08-26T05:39:10.562Z,95073.13
2022-08-26T05:41:51.019Z,95080.38
2022-08-26T05:44:35.746Z,95075.59
2022-08-26T05:47:33.047Z,95073.38
2022-08-26T05:50:12.950Z,95072.78
2022-08-26T05:52:59.073Z,95073.22
2022-08-26T05:55:40.940Z,95074.44
2022-08-26T05:58:23.065Z,95076.63
2022-08-26T06:01:14.998Z,95074.47
2022-08-26T06:03:59.662Z,95071.28
2022-08-26T06:06:45.083Z,95068.94
2022-08-26T06:09:31.970Z,95064.94
2022-08-26T06:12:26.939Z,95064.25
2022-08-26T06:15:14.933Z,95065.44
2022-08-26T06:17:49.057Z,95071.72
2022-08-26T06:20:38.953Z,95065.19
2022-08-26T06:23:31.038Z,95067.34
2022-08-26T06:26:31.961Z,95061.59
2022-08-26T06:29:24.140Z,95063.47
2022-08-26T06:32:06.963Z,95062.91
2022-08-26T06:35:02.937Z,95057.03
2022-08-26T06:37:49.972Z,95061.69
2022-08-26T06:40:30.060Z,95059.34
2022-08-26T06:43:23.978Z,95070.00
2022-08-26T06:46:20.985Z,95068.56
2022-08-26T06:49:17.315Z,95063.66
2022-08-26T06:52:06.969Z,95065.59
2022-08-26T06:54:49.981Z,95059.00
2022-08-26T06:57:44.969Z,95058.44
2022-08-26T07:00:40.014Z,95054.25
2022-08-26T07:03:31.293Z,95056.28
2022-08-26T07:06:13.111Z,95046.88
2022-08-26T07:09:09.911Z,95049.00
2022-08-26T07:11:51.988Z,95052.59
2022-08-26T07:14:48.183Z,95059.81
2022-08-26T07:17:37.027Z,95051.47
2022-08-26T07:20:18.956Z,95045.69
2022-08-26T07:23:13.039Z,95044.28
2022-08-26T07:26:06.975Z,95044.50
2022-08-26T07:29:03.059Z,95044.06
2022-08-26T07:31:49.980Z,95045.16
2022-08-26T07:34:24.084Z,95044.59
2022-08-26T07:37:13.064Z,95037.75
2022-08-26T07:39:54.022Z,95037.81
2022-08-26T07:42:41.030Z,95033.66
2022-08-26T07:45:14.086Z,95034.59
2022-08-26T07:48:01.040Z,95027.78
2022-08-26T07:50:50.227Z,95031.41
2022-08-26T07:53:43.998Z,95015.41
2022-08-26T07:56:35.031Z,95023.47
2022-08-26T07:59:13.593Z,95022.91
2022-08-26T08:02:01.067Z,95023.97
2022-08-26T08:04:37.083Z,95020.59
2022-08-26T08:07:38.570Z,95028.72
2022-08-26T08:10:25.080Z,95025.56
2022-08-26T08:13:14.029Z,95012.81
2022-08-26T08:15:48.082Z,95016.53
2022-08-26T08:18:37.030Z,95017.72
2022-08-26T08:21:21.565Z,95009.16
2022-08-26T08:24:19.248Z,95006.78
2022-08-26T08:27:14.017Z,95006.88
2022-08-26T08:30:01.021Z,95012.09
2022-08-26T08:32:42.036Z,95001.66
2022-08-26T08:35:37.025Z,95004.59
2022-08-26T08:38:24.018Z,95006.56
2022-08-26T08:40:58.227Z,95017.56
2022-08-26T08:43:49.034Z,95000.72
2022-08-26T08:46:24.281Z,95007.16
2022-08-26T08:49:13.026Z,95004.88
2022-08-26T08:52:05.135Z,94992.22
2022-08-26T08:54:52.039Z,94998.66
2022-08-26T08:57:41.054Z,94993.47
2022-08-26T09:00:31.040Z,94997.53
2022-08-26T09:03:17.029Z,95000.09
2022-08-26T09:06:07.041Z,94999.06
2022-08-26T09:08:42.169Z,95005.47
2022-08-26T09:11:29.067Z,94999.91
2022-08-26T09:14:09.047Z,95005.38
2022-08-26T09:17:21.035Z,94994.44
2022-08-26T09:20:30.090Z,94984.06
2022-08-26T09:23:03.194Z,95000.38
2022-08-26T09:26:01.073Z,94990.38
2022-08-26T09:28:52.088Z,94995.44
2022-08-26T09:31:30.231Z,94990.28
2022-08-26T09:34:33.051Z,94986.22
2022-08-26T09:37:14.054Z,94981.44
2022-08-26T09:40:17.156Z,94974.19
2022-08-26T09:42:57.054Z,94975.84
2022-08-26T09:45:54.978Z,94971.09
2022-08-26T09:48:53.319Z,94974.63
2022-08-26T09:51:43.092Z,94967.47
2022-08-26T09:54:33.150Z,94981.28
2022-08-26T09:57:25.087Z,94971.25
2022-08-26T10:00:07.080Z,94972.66
2022-08-26T10:02:57.958Z,94966.72
2022-08-26T10:05:45.171Z,94972.56
2022-08-26T10:08:32.092Z,94974.31
2022-08-26T10:11:11.032Z,94974.09
2022-08-26T10:14:04.065Z,94985.16
2022-08-26T10:17:02.158Z,94982.03
2022-08-26T10:19:58.108Z,94979.84
2022-08-26T10:22:42.212Z,94974.50
2022-08-26T10:25:35.102Z,94977.88
2022-08-26T10:28:34.116Z,94981.94
2022-08-26T10:31:49.141Z,94983.91
2022-08-26T10:34:40.089Z,94980.91
2022-08-26T10:37:22.175Z,94958.69
2022-08-26T10:40:21.174Z,94963.38
2022-08-26T10:43:17.191Z,94963.22
2022-08-26T10:46:11.153Z,94962.84
2022-08-26T10:48:59.827Z,94957.47
2022-08-26T10:52:16.461Z,94953.06
2022-08-26T10:55:05.110Z,94948.38
2022-08-26T10:58:11.644Z,94949.81
2022-08-26T11:01:22.988Z,94949.28
2022-08-26T11:04:38.149Z,94928.88
2022-08-26T11:08:03.119Z,94938.56
2022-08-26T11:10:58.038Z,94943.03
2022-08-26T11:14:16.110Z,94939.53
2022-08-26T11:17:02.367Z,94939.94
2022-08-26T11:20:02.123Z,94940.25
2022-08-26T11:22:47.616Z,94930.53
2022-08-26T11:25:31.115Z,94928.78
2022-08-26T11:28:50.140Z,94924.47
2022-08-26T11:31:44.177Z,94919.84
2022-08-26T11:35:02.163Z,94926.63
2022-08-26T11:37:42.235Z,94928.22
2022-08-26T11:40:42.265Z,94922.72
2022-08-26T11:43:31.161Z,94917.19
2022-08-26T11:46:26.217Z,94906.03
2022-08-26T11:49:14.152Z,94902.81
2022-08-26T11:51:48.434Z,94908.78
2022-08-26T11:54:35.882Z,94900.22
2022-08-26T11:57:11.979Z,94904.34
2022-08-26T11:59:59.143Z,94898.22
2022-08-26T12:02:32.258Z,94901.09
2022-08-26T12:05:27.162Z,94900.69
2022-08-26T12:08:13.285Z,94890.00
2022-08-26T12:11:11.146Z,94891.66
2022-08-26T12:13:44.267Z,94886.88
2022-08-26T12:16:35.207Z,94885.91
2022-08-26T12:19:15.199Z,94882.19
2022-08-26T12:22:36.177Z,94883.00
2022-08-26T12:25:38.180Z,94870.84
2022-08-26T12:28:33.202Z,94865.28
2022-08-26T12:31:34.241Z,94864.03
2022-08-26T12:34:23.226Z,94869.28
2022-08-26T12:37:02.319Z,94866.13
2022-08-26T12:39:51.280Z,94858.13
2022-08-26T12:42:31.233Z,94854.91
2022-08-26T12:45:25.285Z,94849.06
2022-08-26T12:48:29.229Z,94836.56
2022-08-26T12:51:28.218Z,94844.06
2022-08-26T12:54:06.691Z,94838.00
2022-08-26T12:56:53.214Z,94836.69
2022-08-26T12:59:30.302Z,94837.56
2022-08-26T13:02:17.356Z,94835.06
2022-08-26T13:05:00.707Z,94826.47
2022-08-26T13:07:56.250Z,94830.78
2022-08-26T13:10:53.230Z,94830.63
2022-08-26T13:13:40.238Z,94831.72
2022-08-26T13:16:14.420Z,94829.81
2022-08-26T13:19:10.159Z,94827.28
2022-08-26T13:22:12.267Z,94822.59
2022-08-26T13:25:10.233Z,94821.75
2022-08-26T13:28:04.247Z,94819.97
2022-08-26T13:31:00.252Z,94825.34
2022-08-26T13:33:48.256Z,94812.50
2022-08-26T13:36:29.246Z,94816.19
2022-08-26T13:39:23.263Z,94813.13
2022-08-26T13:42:17.255Z,94809.66
2022-08-26T13:45:04.276Z,94814.31
2022-08-26T13:47:40.368Z,94819.94
2022-08-26T13:50:27.267Z,94812.97
2022-08-26T13:53:00.427Z,94810.16
2022-08-26T13:55:48.261Z,94816.28
2022-08-26T13:58:21.401Z,94810.22
2022-08-26T14:01:12.336Z,94812.81
2022-08-26T14:03:46.218Z,94814.69
2022-08-26T14:06:33.276Z,94816.94
2022-08-26T14:09:13.321Z,94814.31
2022-08-26T14:12:02.604Z,94812.19
2022-08-26T14:14:36.354Z,94820.44
2022-08-26T14:17:27.303Z,94818.56
2022-08-26T14:20:04.384Z,94816.47
2022-08-26T14:23:12.638Z,94811.97
2022-08-26T14:25:51.279Z,94826.41
2022-08-26T14:28:45.277Z,94819.88
2022-08-26T14:31:33.339Z,94828.78
2022-08-26T14:34:10.406Z,94824.75
2022-08-26T14:36:57.290Z,94833.91
2022-08-26T14:39:30.382Z,94835.00
2022-08-26T14:42:18.275Z,94830.03
2022-08-26T14:45:00.298Z,94829.31
2022-08-26T14:47:54.283Z,94826.81
2022-08-26T14:50:41.303Z,94840.72
2022-08-26T14:53:33.216Z,94837.41
2022-08-26T14:56:20.288Z,94835.16
2022-08-26T14:58:53.386Z,94834.47
2022-08-26T15:01:40.359Z,94836.38
2022-08-26T15:04:20.329Z,94837.41
2022-08-26T15:07:08.295Z,94836.13
2022-08-26T15:09:53.314Z,94844.34
2022-08-26T15:12:40.322Z,94849.13
2022-08-26T15:15:15.442Z,94852.56
2022-08-26T15:18:03.376Z,94845.19
2022-08-26T15:20:43.316Z,94842.81
2022-08-26T15:23:30.327Z,94846.25
2022-08-26T15:26:10.345Z,94857.69
2022-08-26T15:29:05.148Z,94849.25
2022-08-26T15:31:59.340Z,94846.06
2022-08-26T15:34:53.327Z,94850.78
2022-08-26T15:37:40.428Z,94847.34
2022-08-26T15:40:14.539Z,94847.34
2022-08-26T15:43:18.133Z,94842.44
2022-08-26T15:46:01.392Z,94840.78
2022-08-26T15:48:48.364Z,94836.72
2022-08-26T15:51:35.346Z,94836.94
2022-08-26T15:54:39.341Z,94839.09
2022-08-26T15:57:27.350Z,94839.44
2022-08-26T16:00:00.405Z,94836.25
2022-08-26T16:02:47.362Z,94842.66
2022-08-26T16:05:20.674Z,94843.75
2022-08-26T16:08:08.442Z,94839.69
2022-08-26T16:10:51.374Z,94840.75
2022-08-26T16:13:45.341Z,94840.25
2022-08-26T16:16:32.430Z,94831.94
2022-08-26T16:19:13.365Z,94830.50
2022-08-26T16:22:07.379Z,94828.47
2022-08-26T16:24:54.357Z,94824.41
2022-08-26T16:27:28.491Z,94823.94
2022-08-26T16:30:15.367Z,94832.09
2022-08-26T16:32:48.439Z,94828.88
2022-08-26T16:35:35.376Z,94830.91
2022-08-26T16:38:08.854Z,94829.44
2022-08-26T16:40:55.374Z,94824.66
2022-08-26T16:43:35.369Z,94824.09
2022-08-26T16:46:22.435Z,94822.75
2022-08-26T16:49:03.394Z,94825.81
2022-08-26T16:51:50.362Z,94821.06
2022-08-26T16:54:23.472Z,94820.66
2022-08-26T16:57:10.381Z,94823.00
2022-08-26T16:59:43.524Z,94821.69
2022-08-26T17:02:30.502Z,94818.69
2022-08-26T17:05:03.477Z,94817.31
2022-08-26T17:07:50.392Z,94812.53
2022-08-26T17:10:30.413Z,94818.28
2022-08-26T17:13:35.094Z,94818.03
2022-08-26T17:16:17.446Z,94814.16
2022-08-26T17:18:57.385Z,94814.72
2022-08-26T17:21:31.736Z,94816.00
2022-08-26T17:24:18.380Z,94812.97
2022-08-26T17:26:53.517Z,94818.53
2022-08-26T17:29:42.375Z,94817.25
2022-08-26T17:32:15.451Z,94819.38
2022-08-26T17:35:02.379Z,94820.81
2022-08-26T17:37:42.373Z,94811.66
2022-08-26T17:40:31.496Z,94824.16
2022-08-26T17:43:12.640Z,94826.22
2022-08-26T17:46:16.426Z,94825.94
2022-08-26T17:49:10.394Z,94817.69
2022-08-26T17:51:57.368Z,94825.09
2022-08-26T17:54:32.496Z,94829.81
2022-08-26T17:57:19.384Z,94826.78
2022-08-26T18:00:01.420Z,94828.81
2022-08-26T18:02:55.372Z,94836.13
2022-08-26T18:05:42.414Z,94829.56
2022-08-26T18:08:16.562Z,94836.75
2022-08-26T18:11:03.395Z,94832.13
2022-08-26T18:13:36.558Z,94842.13
2022-08-26T18:16:26.402Z,94839.06
2022-08-26T18:19:08.472Z,94837.69
2022-08-26T18:21:55.415Z,94836.31
2022-08-26T18:24:30.456Z,94833.19
2022-08-26T18:27:24.417Z,94843.88
2022-08-26T18:30:24.397Z,94838.97
2022-08-26T18:33:11.582Z,94838.63
2022-08-26T18:35:51.557Z,94838.91
2022-08-26T18:38:38.420Z,94838.38
2022-08-26T18:41:22.456Z,94843.13
2022-08-26T18:44:13.291Z,94837.47
2022-08-26T18:46:47.568Z,94842.16
2022-08-26T18:49:34.414Z,94845.94
2022-08-26T18:52:14.431Z,94848.09
2022-08-26T18:55:02.426Z,94847.72
2022-08-26T18:57:35.525Z,94843.63
2022-08-26T19:00:22.442Z,94847.34
2022-08-26T19:02:56.152Z,94840.88
2022-08-26T19:05:44.443Z,94841.97
2022-08-26T19:08:24.422Z,94850.06
2022-08-26T19:11:31.439Z,94851.28
2022-08-26T19:14:29.436Z,94848.22
2022-08-26T19:17:17.458Z,94843.38
2022-08-26T19:19:55.519Z,94845.34
2022-08-26T19:22:42.420Z,94839.69
2022-08-26T19:25:17.394Z,94833.16
2022-08-26T19:28:11.438Z,94837.03
2022-08-26T19:31:05.512Z,94836.50
2022-08-26T19:33:52.438Z,94841.28
2022-08-26T19:36:36.458Z,94851.94
2022-08-26T19:39:30.450Z,94853.94
2022-08-26T19:42:17.428Z,94848.28
2022-08-26T19:45:25.339Z,94850.13
2022-08-26T19:48:19.431Z,94856.59
2022-08-26T19:51:14.463Z,94843.25
2022-08-26T19:54:03.460Z,94851.44
2022-08-26T19:56:36.677Z,94850.06
2022-08-26T19:59:24.464Z,94849.06
2022-08-26T20:02:01.211Z,94848.56
2022-08-26T20:04:48.467Z,94850.22
2022-08-26T20:07:28.463Z,94852.75
2022-08-26T20:10:20.473Z,94850.22
2022-08-26T20:12:55.566Z,94854.91
2022-08-26T20:15:42.471Z,94856.19
2022-08-26T20:18:34.327Z,94854.84
2022-08-26T20:21:32.494Z,94850.94
2022-08-26T20:24:18.680Z,94856.41
2022-08-26T20:26:58.509Z,94856.66
2022-08-26T20:29:38.617Z,94857.59
2022-08-26T20:32:18.534Z,94857.09
2022-08-26T20:35:05.513Z,94858.25
2022-08-26T20:37:52.517Z,94852.47
2022-08-26T20:40:25.611Z,94863.09
2022-08-26T20:43:12.529Z,94868.53
2022-08-26T20:45:52.563Z,94873.13
2022-08-26T20:48:39.555Z,94867.41
2022-08-26T20:51:20.513Z,94872.03
2022-08-26T20:54:14.512Z,94866.38
2022-08-26T20:57:10.506Z,94864.94
2022-08-26T20:59:57.559Z,94867.94
2022-08-26T21:02:30.599Z,94864.00
2022-08-26T21:05:17.585Z,94866.06
2022-08-26T21:07:51.721Z,94866.41
2022-08-26T21:10:39.528Z,94868.38
2022-08-26T21:13:12.592Z,94863.44
2022-08-26T21:16:03.579Z,94861.19
2022-08-26T21:18:43.545Z,94864.91
2022-08-26T21:21:30.568Z,94865.88
2022-08-26T21:24:04.619Z,94866.94
2022-08-26T21:26:51.520Z,94868.09
2022-08-26T21:29:24.621Z,94867.47
2022-08-26T21:32:12.582Z,94860.63
2022-08-26T21:34:48.643Z,94863.38
2022-08-26T21:37:35.534Z,94860.94
2022-08-26T21:40:16.643Z,94861.09
2022-08-26T21:43:10.545Z,94859.44
2022-08-26T21:46:07.588Z,94858.66
2022-08-26T21:48:40.833Z,94857.03
2022-08-26T21:51:29.562Z,94854.53
2022-08-26T21:54:11.731Z,94857.25
2022-08-26T21:57:05.562Z,94849.72
2022-08-26T21:59:52.572Z,94848.22
2022-08-26T22:02:33.606Z,94850.25
2022-08-26T22:05:27.557Z,94854.72
2022-08-26T22:08:14.571Z,94860.72
2022-08-26T22:10:58.551Z,94861.66
2022-08-26T22:13:54.558Z,94861.81
2022-08-26T22:16:41.688Z,94863.69
2022-08-26T22:19:23.766Z,94863.09
2022-08-26T22:22:10.560Z,94863.53
2022-08-26T22:24:43.739Z,94863.56
2022-08-26T22:27:40.550Z,94867.06
2022-08-26T22:30:29.567Z,94866.16
2022-08-26T22:33:02.760Z,94869.63
2022-08-26T22:35:52.601Z,94868.88
2022-08-26T22:38:26.647Z,94864.75
2022-08-26T22:41:14.593Z,94868.44
2022-08-26T22:43:55.572Z,94863.69
2022-08-26T22:46:49.592Z,94859.72
2022-08-26T22:49:43.571Z,94862.44
2022-08-26T22:52:30.582Z,94855.03
2022-08-26T22:55:10.579Z,94857.81
2022-08-26T22:58:04.577Z,94852.94
2022-08-26T23:00:59.616Z,94850.56
2022-08-26T23:03:46.642Z,94852.25
2022-08-26T23:06:26.588Z,94849.91
2022-08-26T23:09:14.583Z,94851.00
2022-08-26T23:11:49.756Z,94850.22
2022-08-26T23:14:38.612Z,94847.91
2022-08-26T23:17:18.574Z,94852.34
2022-08-26T23:20:05.597Z,94847.94
2022-08-26T23:22:39.423Z,94846.28
2022-08-26T23:25:26.618Z,94834.47
2022-08-26T23:28:06.629Z,94841.66
2022-08-26T23:30:54.622Z,94845.19
2022-08-26T23:33:48.634Z,94841.00
2022-08-26T23:36:35.604Z,94835.28
2022-08-26T23:39:09.704Z,94838.00
2022-08-26T23:41:56.594Z,94829.47
2022-08-26T23:44:30.627Z,94832.97
2022-08-26T23:47:17.618Z,94824.50
2022-08-26T23:49:50.685Z,94826.63
2022-08-26T23:52:55.630Z,94823.47
2022-08-26T23:55:29.694Z,94823.38
2022-08-26T23:58:16.642Z,94819.91
